Time;durP1;ratioP1;P1;durP2;ratioP2;P2;SDS_P1;SDS_P2;PMS_P1;PMS_P2;Temp;Humidity;BMP_temperature;BMP_pressure;BME280_temperature;BME280_humidity;BME280_pressure;Samples;Min_cycle;Max_cycle;Signal;HPM_P1;HPM_P2
2024/04/01 00:01:19;;;;;;;11.68;3.28;;;;;;;19.18;43.56;99187.69;4932130;28;20589;-93
2024/04/01 00:03:44;;;;;;;25.00;3.72;;;;;;;19.10;43.80;99183.06;4929668;28;20420;-93
2024/04/01 00:06:10;;;;;;;15.70;3.28;;;;;;;18.99;43.46;99165.47;4946729;28;20027;-94
2024/04/01 00:08:35;;;;;;;20.38;3.90;;;;;;;19.02;43.70;99177.66;4930301;28;20118;-93
2024/04/01 00:11:01;;;;;;;15.52;3.08;;;;;;;18.98;43.99;99175.56;4929581;28;20042;-93
2024/04/01 00:13:27;;;;;;;22.05;3.95;;;;;;;18.95;43.59;99176.25;4929008;28;20187;-92
2024/04/01 00:15:53;;;;;;;18.52;3.10;;;;;;;18.91;42.64;99169.84;4928671;28;20497;-93
2024/04/01 00:18:18;;;;;;;19.92;3.70;;;;;;;18.95;43.08;99180.91;4946995;28;20050;-91
2024/04/01 00:20:57;;;;;;;19.60;3.33;;;;;;;19.00;43.68;99179.91;4937208;29;20024;-93
2024/04/01 00:23:26;;;;;;;23.05;3.42;;;;;;;18.91;43.87;99175.31;4927165;29;20407;-94
2024/04/01 00:25:57;;;;;;;17.98;3.42;;;;;;;18.83;43.89;99175.34;4917882;29;20031;-92
2024/04/01 00:28:23;;;;;;;21.90;4.10;;;;;;;18.99;44.53;99195.50;4942849;29;20035;-92
2024/04/01 00:30:48;;;;;;;17.73;3.60;;;;;;;18.92;44.11;99190.53;4910322;29;20129;-92
2024/04/01 00:33:15;;;;;;;21.48;3.90;;;;;;;18.83;44.23;99181.59;4910901;29;20023;-92
2024/04/01 00:35:43;;;;;;;23.88;3.00;;;;;;;18.97;44.09;99195.03;4926896;29;20111;-93
2024/04/01 00:38:09;;;;;;;15.93;2.80;;;;;;;18.88;43.23;99175.16;4911901;29;20019;-93
2024/04/01 00:40:35;;;;;;;24.48;3.65;;;;;;;18.95;42.39;99178.97;4925786;29;20057;-92
2024/04/01 00:43:08;;;;;;;19.38;3.78;;;;;;;18.85;44.88;99176.63;4943126;29;20031;-94
2024/04/01 00:45:36;;;;;;;12.88;3.40;;;;;;;18.82;45.48;99180.00;4911427;29;20027;-92
2024/04/01 00:48:02;;;;;;;14.15;3.40;;;;;;;18.71;45.44;99174.06;4926349;29;20046;-93
2024/04/01 00:50:28;;;;;;;18.17;3.22;;;;;;;18.87;44.02;99198.13;4926511;29;20031;-95
2024/04/01 00:52:54;;;;;;;18.70;3.08;;;;;;;18.69;43.55;99172.81;4926055;29;20023;-92
2024/04/01 00:55:20;;;;;;;17.48;3.63;;;;;;;18.88;42.86;99200.50;4926578;29;20062;-93
2024/04/01 00:57:46;;;;;;;13.57;2.80;;;;;;;18.81;42.31;99172.94;4925602;29;20553;-92
2024/04/01 01:00:12;;;;;;;33.75;4.07;;;;;;;18.95;42.49;99189.91;4911565;29;20122;-92
2024/04/01 01:02:37;;;;;;;20.75;3.90;;;;;;;19.02;42.10;99189.38;4928414;29;20044;-92
2024/04/01 01:05:03;;;;;;;16.55;3.20;;;;;;;18.95;42.36;99186.38;4909268;29;20065;-95
2024/04/01 01:07:32;;;;;;;33.83;5.38;;;;;;;19.02;43.43;99196.75;4909040;29;20027;-93
2024/04/01 01:09:58;;;;;;;16.95;4.20;;;;;;;18.76;44.88;99182.09;4914867;28;20473;-93
2024/04/01 01:12:24;;;;;;;26.08;4.35;;;;;;;18.74;45.29;99186.28;4942997;28;20110;-94
2024/04/01 01:14:50;;;;;;;16.40;3.30;;;;;;;18.76;45.28;99184.81;4944052;28;20117;-93
2024/04/01 01:17:15;;;;;;;24.80;4.38;;;;;;;18.72;44.89;99191.25;4943235;28;20023;-94
2024/04/01 01:19:41;;;;;;;18.98;4.55;;;;;;;18.64;45.74;99192.09;4960609;28;20037;-93
2024/04/01 01:22:07;;;;;;;20.73;3.55;;;;;;;18.65;45.52;99193.69;4944469;28;20509;-94
2024/04/01 01:24:32;;;;;;;15.95;3.67;;;;;;;18.54;45.24;99188.59;4927384;28;20037;-94
2024/04/01 01:26:59;;;;;;;22.95;4.85;;;;;;;18.49;45.47;99188.78;4927528;28;20481;-94
2024/04/01 01:29:24;;;;;;;27.58;4.53;;;;;;;18.43;45.46;99184.63;4943785;28;20043;-93
2024/04/01 01:31:50;;;;;;;25.20;4.80;;;;;;;18.37;45.00;99186.72;4928516;28;20112;-94
2024/04/01 01:34:16;;;;;;;25.88;5.18;;;;;;;18.32;43.49;99176.00;4929573;28;20098;-92
2024/04/01 01:36:41;;;;;;;30.52;5.72;;;;;;;18.45;45.04;99197.91;4915434;29;20063;-92
2024/04/01 01:39:12;;;;;;;29.55;6.03;;;;;;;18.41;45.06;99195.06;4895524;29;20023;-93
2024/04/01 01:41:38;;;;;;;22.80;4.72;;;;;;;18.13;46.18;99162.72;4892079;29;20040;-92
2024/04/01 01:44:05;;;;;;;18.20;4.25;;;;;;;18.11;46.54;99175.06;4890149;29;20034;-91
2024/04/01 01:46:32;;;;;;;33.60;5.40;;;;;;;18.14;47.33;99183.41;4902588;29;20039;-93
2024/04/01 01:48:58;;;;;;;15.02;3.55;;;;;;;18.12;48.13;99190.31;4902216;29;20512;-92
2024/04/01 01:51:24;;;;;;;14.73;4.00;;;;;;;18.11;48.01;99197.66;4900450;29;20039;-93
2024/04/01 01:53:49;;;;;;;15.82;3.53;;;;;;;18.02;49.08;99190.63;4894080;29;20016;-93
2024/04/01 01:56:18;;;;;;;17.90;3.72;;;;;;;17.87;49.41;99184.56;4920877;29;20063;-93
2024/04/01 01:58:44;;;;;;;17.70;3.10;;;;;;;17.73;49.85;99179.22;4901353;29;20039;-93
2024/04/01 02:01:10;;;;;;;16.58;3.42;;;;;;;17.72;49.97;99185.00;4906138;29;20079;-92
2024/04/01 02:03:36;;;;;;;22.92;3.88;;;;;;;17.65;50.41;99192.84;4906468;29;20027;-93
2024/04/01 02:06:02;;;;;;;21.08;4.32;;;;;;;17.54;50.68;99176.84;4923002;29;20028;-93
2024/04/01 02:08:28;;;;;;;15.02;4.05;;;;;;;17.54;50.56;99181.47;4905122;29;20477;-94
2024/04/01 02:10:56;;;;;;;21.08;3.50;;;;;;;17.61;50.48;99195.41;4906914;29;20034;-93
2024/04/01 02:13:22;;;;;;;27.92;5.35;;;;;;;17.52;51.10;99192.69;4923099;29;20055;-93
2024/04/01 02:15:48;;;;;;;18.13;3.60;;;;;;;17.44;51.45;99200.84;4920916;28;20114;-93
2024/04/01 02:18:13;;;;;;;18.42;3.72;;;;;;;17.32;51.77;99188.66;4919519;29;20039;-94
2024/04/01 02:20:40;;;;;;;17.67;3.90;;;;;;;17.26;51.92;99197.28;4906336;29;20110;-94
2024/04/01 02:23:05;;;;;;;16.90;3.40;;;;;;;17.10;51.81;99192.31;4904799;29;20459;-93
2024/04/01 02:25:33;;;;;;;21.48;3.25;;;;;;;17.16;52.19;99215.53;4905084;29;20032;-93
2024/04/01 02:27:59;;;;;;;22.25;3.30;;;;;;;16.97;52.13;99190.47;4905689;29;20130;-93
2024/04/01 02:30:27;;;;;;;18.90;3.83;;;;;;;17.12;52.27;99214.56;4904160;29;20163;-93
2024/04/01 02:32:53;;;;;;;19.58;3.20;;;;;;;16.91;52.35;99192.56;4909218;29;20066;-92
2024/04/01 02:35:19;;;;;;;24.73;3.63;;;;;;;16.94;52.35;99199.28;4940934;29;20117;-93
2024/04/01 02:37:45;;;;;;;19.30;3.45;;;;;;;16.87;52.41;99201.66;4912829;29;20031;-93
2024/04/01 02:40:11;;;;;;;20.77;3.85;;;;;;;16.71;52.63;99193.09;4928219;29;20027;-93
2024/04/01 02:42:36;;;;;;;22.08;3.28;;;;;;;16.62;52.63;99211.28;4928059;29;20041;-93
2024/04/01 02:45:03;;;;;;;20.58;3.53;;;;;;;16.65;52.45;99219.59;4912911;29;20035;-93
2024/04/01 02:47:29;;;;;;;16.92;4.22;;;;;;;16.57;52.53;99207.56;4912509;29;20122;-94
2024/04/01 02:49:55;;;;;;;13.90;3.10;;;;;;;16.44;53.24;99204.97;4913195;29;20065;-94
2024/04/01 02:52:20;;;;;;;17.77;4.25;;;;;;;16.35;53.18;99189.41;4913734;29;20038;-93
2024/04/01 02:54:46;;;;;;;13.57;3.45;;;;;;;16.21;53.45;99183.25;4911709;29;20070;-93
2024/04/01 02:57:12;;;;;;;23.23;4.22;;;;;;;16.38;53.15;99200.78;4913270;29;20048;-93
2024/04/01 02:59:37;;;;;;;13.93;3.40;;;;;;;16.46;53.26;99208.97;4912840;29;20054;-93
2024/04/01 03:02:04;;;;;;;20.45;3.75;;;;;;;16.35;53.73;99199.44;4928893;29;20370;-93
2024/04/01 03:04:29;;;;;;;12.32;3.25;;;;;;;16.21;54.39;99206.88;4912703;29;20024;-93
2024/04/01 03:06:55;;;;;;;18.33;3.53;;;;;;;16.19;54.52;99211.84;4911247;29;20039;-93
2024/04/01 03:09:21;;;;;;;23.35;3.40;;;;;;;16.11;54.95;99207.94;4911764;29;20492;-93
2024/04/01 03:11:47;;;;;;;14.88;2.92;;;;;;;16.08;55.06;99198.50;4911307;29;20512;-93
2024/04/01 03:14:12;;;;;;;15.85;3.28;;;;;;;16.03;54.92;99195.91;4926162;29;20031;-93
2024/04/01 03:16:38;;;;;;;22.90;4.00;;;;;;;15.92;55.19;99192.63;4911520;29;20154;-94
2024/04/01 03:19:03;;;;;;;23.83;3.60;;;;;;;15.99;55.45;99205.00;4927090;29;20036;-93
2024/04/01 03:21:30;;;;;;;26.73;5.32;;;;;;;16.02;55.46;99198.91;4926476;29;20023;-96
2024/04/01 03:23:58;;;;;;;23.15;4.63;;;;;;;16.07;55.57;99201.53;4942302;29;20035;-94
2024/04/01 03:26:24;;;;;;;18.40;3.50;;;;;;;16.07;55.62;99204.25;4912044;29;20608;-94
2024/04/01 03:28:50;;;;;;;15.30;4.63;;;;;;;15.90;56.24;99194.06;4927748;29;20035;-93
2024/04/01 03:31:15;;;;;;;20.88;4.65;;;;;;;15.91;56.09;99193.72;4926810;29;20043;-95
2024/04/01 03:33:41;;;;;;;20.80;3.70;;;;;;;15.83;56.41;99208.03;4910534;29;20119;-92
2024/04/01 03:36:07;;;;;;;21.23;4.65;;;;;;;15.71;57.32;99216.72;4910893;29;20094;-94
2024/04/01 03:38:32;;;;;;;17.65;3.95;;;;;;;15.63;57.54;99219.38;4910547;29;20030;-92
2024/04/01 03:40:58;;;;;;;21.13;4.82;;;;;;;15.43;57.63;99196.97;4910571;29;20095;-93
2024/04/01 03:43:24;;;;;;;28.23;5.03;;;;;;;15.43;57.70;99218.69;4911033;29;20023;-94
2024/04/01 03:45:59;;;;;;;29.40;4.75;;;;;;;15.49;57.46;99225.59;4926882;29;20023;-94
2024/04/01 03:48:25;;;;;;;26.15;4.38;;;;;;;15.33;57.60;99205.34;4909996;29;20019;-95
2024/04/01 03:50:51;;;;;;;29.92;5.05;;;;;;;15.37;57.78;99214.47;4910607;29;20442;-93
2024/04/01 03:53:17;;;;;;;29.33;5.03;;;;;;;15.28;58.09;99213.59;4909852;29;20023;-95
2024/04/01 03:55:43;;;;;;;31.15;6.22;;;;;;;15.20;57.98;99220.53;4911486;29;20038;-93
2024/04/01 03:58:08;;;;;;;26.75;5.60;;;;;;;15.22;58.15;99225.66;4910790;29;20027;-93
2024/04/01 04:00:34;;;;;;;24.48;5.03;;;;;;;15.10;57.93;99202.53;4909986;29;20125;-94
2024/04/01 04:03:01;;;;;;;27.83;6.38;;;;;;;14.98;58.27;99215.81;4925872;29;20035;-94
2024/04/01 04:05:29;;;;;;;24.60;6.18;;;;;;;15.11;58.00;99234.00;4945231;28;20030;-94
2024/04/01 04:07:55;;;;;;;26.85;6.88;;;;;;;15.14;57.94;99246.94;4928272;28;20018;-94
2024/04/01 04:13:25;;;;;;;45.40;8.77;;;;;;;15.21;57.83;99262.00;4947258;29;20042;-95
2024/04/01 04:15:51;;;;;;;36.63;7.78;;;;;;;15.28;57.69;99262.44;4911206;29;20129;-93
2024/04/01 04:18:16;;;;;;;30.27;7.70;;;;;;;15.21;57.77;99248.44;4911632;29;20497;-92
2024/04/01 04:20:49;;;;;;;27.30;7.60;;;;;;;15.21;57.92;99248.44;4910401;29;20031;-92
2024/04/01 04:23:15;;;;;;;37.85;10.30;;;;;;;15.30;57.58;99262.94;4912225;29;20011;-92
2024/04/01 04:25:41;;;;;;;36.78;9.90;;;;;;;15.32;57.82;99266.13;4926391;29;20050;-93
2024/04/01 04:28:06;;;;;;;30.88;8.65;;;;;;;15.32;57.93;99269.66;4922622;29;20024;-93
2024/04/01 04:30:32;;;;;;;29.90;8.35;;;;;;;15.35;58.33;99270.94;4906777;29;20047;-91
2024/04/01 04:32:57;;;;;;;51.58;20.88;;;;;;;15.24;58.14;99254.06;4910619;29;20042;-92
2024/04/01 04:35:25;;;;;;;36.47;7.82;;;;;;;15.30;58.06;99260.22;4907955;29;20524;-93
2024/04/01 04:37:50;;;;;;;39.00;9.95;;;;;;;15.22;58.15;99247.34;4927595;29;20090;-92
2024/04/01 04:40:57;;;;;;;34.83;6.80;;;;;;;15.35;57.87;99269.03;4960731;29;20377;-94
2024/04/01 04:43:23;;;;;;;41.58;7.60;;;;;;;15.45;57.71;99287.00;4913653;29;20042;-92
2024/04/01 04:45:49;;;;;;;29.63;9.20;;;;;;;15.40;57.85;99275.47;4941209;29;20034;-94
2024/04/01 04:48:15;;;;;;;32.47;7.90;;;;;;;15.27;57.49;99256.19;4909807;29;20036;-93
2024/04/01 04:50:41;;;;;;;42.05;7.65;;;;;;;15.46;56.99;99279.69;4911018;29;20035;-95
2024/04/01 04:53:06;;;;;;;33.53;8.55;;;;;;;15.33;57.49;99275.88;4913118;29;20123;-95
2024/04/01 04:55:33;;;;;;;48.90;9.35;;;;;;;15.39;57.14;99290.16;4932073;29;20444;-92
2024/04/01 04:58:02;;;;;;;40.90;8.65;;;;;;;15.21;57.20;99275.56;4927291;28;20027;-95
2024/04/01 05:00:52;;;;;;;29.92;8.45;;;;;;;15.27;57.00;99274.38;4932772;29;20031;-95
2024/04/01 05:03:17;;;;;;;33.42;8.65;;;;;;;15.35;56.84;99274.44;4915170;29;20051;-95
2024/04/01 05:05:43;;;;;;;41.90;9.02;;;;;;;15.42;56.73;99273.25;4908505;29;20124;-94
2024/04/01 05:08:09;;;;;;;30.67;8.80;;;;;;;15.46;56.86;99280.50;4908754;29;20099;-94
2024/04/01 05:10:34;;;;;;;42.15;9.10;;;;;;;15.55;57.10;99284.09;4891551;29;20059;-93
2024/04/01 05:13:03;;;;;;;46.53;9.80;;;;;;;15.65;56.94;99277.66;4923927;29;20133;-93
2024/04/01 05:15:31;;;;;;;38.35;9.15;;;;;;;15.71;56.99;99283.78;4927207;29;20035;-93
2024/04/01 05:24:42;;;;;;;40.63;9.07;;;;;;;16.08;56.01;99280.00;4956470;29;20035;-91
2024/04/01 05:27:16;;;;;;;56.22;9.30;;;;;;;16.07;55.85;99278.38;4927493;29;20523;-91
2024/04/01 05:29:42;;;;;;;51.88;10.02;;;;;;;16.15;55.96;99271.41;4958019;29;20059;-90
2024/04/01 05:32:08;;;;;;;41.13;8.57;;;;;;;16.26;55.49;99291.78;4925301;29;20082;-89
2024/04/01 05:34:43;;;;;;;51.88;9.88;;;;;;;16.34;55.34;99284.81;4924082;29;20034;-91
2024/04/01 05:37:22;;;;;;;40.30;7.95;;;;;;;16.49;55.17;99289.88;4909410;29;20028;-93
2024/04/01 05:39:50;;;;;;;37.00;8.73;;;;;;;16.53;55.30;99276.47;4909794;29;20042;-89
2024/04/01 05:42:22;;;;;;;49.05;9.75;;;;;;;16.78;54.04;99294.03;4925413;29;20037;-90
2024/04/01 05:44:47;;;;;;;50.92;10.45;;;;;;;16.94;53.74;99300.72;4924325;29;20027;-91
2024/04/01 05:47:49;;;;;;;122.78;13.30;;;;;;;16.87;53.65;99275.06;4938034;29;20119;-96
2024/04/01 05:50:34;;;;;;;49.35;11.05;;;;;;;16.87;53.35;99264.19;4949377;29;20027;-96
2024/04/01 05:53:17;;;;;;;29.60;10.30;;;;;;;17.12;52.82;99268.97;4969341;29;20484;-96
2024/04/01 05:56:07;;;;;;;44.95;12.55;;;;;;;17.40;50.37;99279.59;4969254;29;20043;-96
2024/04/01 05:58:35;;;;;;;63.83;16.38;;;;;;;17.56;49.16;99279.97;4933406;29;20031;-94
2024/04/01 06:13:44;;;;;;;56.88;11.57;;;;;;;17.87;46.89;99277.16;5227502;23;20091;-95
2024/04/01 06:16:13;;;;;;;49.80;9.60;;;;;;;18.11;45.93;99282.13;4955058;28;20032;-94
2024/04/01 06:19:19;;;;;;;54.30;9.82;;;;;;;18.22;46.20;99254.56;4975275;28;20026;-95
2024/04/01 06:22:10;;;;;;;127.20;64.35;;;;;;;18.72;44.06;99275.81;4952805;28;20022;-95
2024/04/01 06:24:39;;;;;;;62.28;14.70;;;;;;;18.77;42.12;99264.72;4954778;28;20023;-96
2024/04/01 06:35:07;;;;;;;37.13;7.30;;;;;;;19.80;39.15;99286.44;4960818;29;20393;-95
2024/04/01 06:44:41;;;;;;;41.47;8.48;;;;;;;20.12;40.00;99257.56;4917661;29;20035;-96
2024/04/01 06:47:29;;;;;;;56.45;10.55;;;;;;;20.34;40.24;99275.53;4947489;29;20099;-96
2024/04/01 06:50:02;;;;;;;73.72;27.77;;;;;;;20.32;40.32;99253.19;4930099;29;20506;-95
2024/04/01 06:52:43;;;;;;;78.38;22.83;;;;;;;20.48;39.76;99258.84;4911754;29;20035;-96
2024/04/01 06:55:15;;;;;;;42.30;9.52;;;;;;;20.54;39.18;99254.75;4915452;29;20027;-96
2024/04/01 07:02:51;;;;;;;38.67;7.47;;;;;;;20.95;38.25;99263.97;5396722;23;20455;-93
2024/04/01 07:08:39;;;;;;;50.75;7.80;;;;;;;21.20;35.77;99262.03;4941072;29;20130;-94
2024/04/01 07:15:28;;;;;;;;;;;;;;;;;;;;;
2024/04/01 07:18:11;;;;;;;41.38;7.68;;;;;;;21.63;34.73;99237.97;4830048;29;20124;-95
2024/04/01 07:21:33;;;;;;;51.60;6.80;;;;;;;21.75;34.85;99251.63;4860194;29;20124;-96
2024/04/01 07:24:16;;;;;;;;;;;;;;;;;;;;;
2024/04/01 07:26:54;;;;;;;50.38;6.65;;;;;;;21.76;34.37;99249.69;4854367;29;20109;-95
2024/04/01 07:29:20;;;;;;;35.03;7.03;;;;;;;21.92;34.27;99260.75;4837704;29;20053;-94
2024/04/01 07:32:08;;;;;;;43.88;6.25;;;;;;;21.89;34.32;99242.22;4851003;29;20041;-94
2024/04/01 07:38:21;;;;;;;198.40;117.68;;;;;;;22.10;34.30;99239.28;4874662;29;20032;-95
2024/04/01 07:41:10;;;;;;;54.75;9.63;;;;;;;22.17;33.32;99232.06;4878355;29;20637;-94
2024/04/01 07:43:44;;;;;;;41.92;7.13;;;;;;;22.39;33.09;99240.91;4883570;29;20087;-94
2024/04/01 07:46:13;;;;;;;52.65;8.20;;;;;;;22.45;33.91;99230.47;4891043;29;20020;-93
2024/04/01 07:52:04;;;;;;;44.70;8.15;;;;;;;22.84;35.35;99247.97;4924495;29;20555;-95
2024/04/01 07:54:35;;;;;;;40.13;8.30;;;;;;;22.84;35.71;99236.97;4891080;29;20026;-94
2024/04/01 07:57:15;;;;;;;36.47;8.55;;;;;;;22.86;34.64;99231.16;4875315;29;20020;-94
2024/04/01 07:59:43;;;;;;;47.53;7.25;;;;;;;23.03;33.60;99230.00;4874108;29;20070;-96
2024/04/01 08:05:54;;;;;;;38.88;8.95;;;;;;;23.35;32.91;99217.84;4848457;29;20459;-95
2024/04/01 08:08:50;;;;;;;;;;;;;;;;;;;;;
2024/04/01 08:11:51;;;;;;;47.30;9.18;;;;;;;23.67;31.63;99204.00;4859576;29;20081;-95
2024/04/01 08:14:47;;;;;;;;;;;;;;;;;;;;;
2024/04/01 08:24:17;;;;;;;56.08;7.35;;;;;;;24.52;29.89;99200.56;4849266;29;20100;-94
2024/04/01 08:27:07;;;;;;;57.67;7.43;;;;;;;24.56;28.61;99187.66;4822349;29;20045;-95
2024/04/01 08:30:29;;;;;;;59.00;8.20;;;;;;;24.78;28.85;99191.59;4826477;29;20042;-96
2024/04/01 08:36:24;;;;;;;58.65;7.82;;;;;;;25.23;25.43;99202.91;4849002;29;20029;-94
2024/04/01 09:06:22;;;;;;;74.13;9.98;;;;;;;26.80;21.95;99145.97;4794798;29;20514;-95
2024/04/01 09:09:35;;;;;;;61.60;8.82;;;;;;;27.09;22.54;99162.75;4798079;29;20043;-96
2024/04/01 09:12:21;;;;;;;60.58;8.88;;;;;;;27.12;21.18;99140.69;4844965;29;20051;-95
2024/04/01 09:14:56;;;;;;;50.63;8.23;;;;;;;27.38;20.11;99156.25;4889128;29;20131;-94
2024/04/01 09:17:47;;;;;;;61.05;8.95;;;;;;;27.41;20.72;99144.44;4871421;29;20092;-94
2024/04/01 09:20:15;;;;;;;64.63;11.65;;;;;;;27.58;21.05;99140.16;4860157;29;20036;-94
2024/04/01 09:25:40;;;;;;;62.53;8.98;;;;;;;27.84;20.06;99151.31;4900040;29;20036;-94
2024/04/01 09:28:08;;;;;;;74.60;10.40;;;;;;;27.77;18.69;99125.19;4904689;29;20108;-94
2024/04/01 09:30:37;;;;;;;77.78;9.18;;;;;;;27.87;18.07;99120.91;4873868;29;20040;-92
2024/04/01 09:33:04;;;;;;;73.22;8.70;;;;;;;27.91;18.09;99112.59;4887164;29;20387;-93
2024/04/01 09:35:38;;;;;;;85.93;9.80;;;;;;;28.02;17.73;99116.97;4894132;29;20024;-96
2024/04/01 09:38:04;;;;;;;75.82;8.52;;;;;;;28.07;17.31;99113.03;4892697;29;20407;-94
2024/04/01 09:40:57;;;;;;;58.33;9.88;;;;;;;28.35;17.77;99125.34;4896024;29;20024;-95
2024/04/01 09:47:02;;;;;;;64.07;8.57;;;;;;;28.48;17.29;99114.66;5161186;23;20090;-95
2024/04/01 09:49:33;;;;;;;71.82;8.45;;;;;;;28.46;16.91;99100.41;4929055;29;20039;-94
2024/04/01 09:52:06;;;;;;;72.40;8.82;;;;;;;28.51;16.92;99100.81;4901724;29;20028;-96
2024/04/01 09:54:44;;;;;;;;;;;;;;;;;;;;;
2024/04/01 10:00:40;;;;;;;66.88;9.73;;;;;;;28.76;16.61;99097.22;4883371;29;20590;-94
2024/04/01 10:07:17;;;;;;;62.05;9.57;;;;;;;28.81;16.30;99081.00;4940478;29;20055;-95
2024/04/01 10:09:59;;;;;;;66.38;9.43;;;;;;;29.07;16.20;99101.13;4919070;29;20036;-95
2024/04/01 10:12:51;;;;;;;;;;;;;;;29.10;18.88;99102.31;4923471;29;20072;-96
2024/04/01 10:19:07;;;;;;;79.95;8.75;;;;;;;28.96;18.01;99065.13;4960285;29;20198;-96
2024/04/01 10:24:52;;;;;;;79.35;9.23;;;;;;;29.24;18.94;99076.53;4960181;28;20465;-95
2024/04/01 10:37:02;;;;;;;66.95;8.85;;;;;;;29.22;20.60;99074.19;4948156;28;19907;-96
2024/04/01 10:40:04;;;;;;;;;;;;;;;;;;;;;
2024/04/01 10:42:51;;;;;;;65.40;8.55;;;;;;;29.34;20.41;99067.38;4932196;29;20525;-95
2024/04/01 10:45:58;;;;;;;60.80;8.32;;;;;;;29.40;20.04;99065.78;4925166;29;20036;-94
2024/04/01 10:48:31;;;;;;;59.42;9.27;;;;;;;29.33;19.93;99044.41;4865403;29;20033;-93
2024/04/01 10:51:31;;;;;;;65.43;8.88;;;;;;;29.48;18.91;99061.78;4867222;29;20045;-95
2024/04/01 10:54:14;;;;;;;66.13;8.82;;;;;;;29.47;18.82;99034.44;4925147;29;20032;-95
2024/04/01 10:57:20;;;;;;;54.20;8.55;;;;;;;29.56;18.45;99051.44;4903009;29;20047;-95
2024/04/01 11:00:13;;;;;;;70.25;8.40;;;;;;;29.59;19.36;99050.63;4909690;29;20107;-96
2024/04/01 11:02:57;;;;;;;62.92;8.60;;;;;;;29.65;18.38;99046.22;4925136;29;20454;-95
2024/04/01 11:09:42;;;;;;;;;;;;;;;;;;;;;
2024/04/01 11:19:29;;;;;;;75.70;9.18;;;;;;;29.78;18.62;99025.16;5003302;23;19922;-96
2024/04/01 11:22:03;;;;;;;58.40;8.20;;;;;;;29.90;19.31;99014.75;4941544;29;20028;-93
2024/04/01 11:24:33;;;;;;;64.10;8.35;;;;;;;30.01;18.32;99029.38;4904921;29;20040;-91
2024/04/01 11:27:36;;;;;;;64.68;9.70;;;;;;;30.08;17.49;99017.41;4944301;28;20046;-96
2024/04/01 11:33:58;;;;;;;77.65;9.48;;;;;;;30.32;16.93;99016.44;4921999;29;20064;-93
2024/04/01 11:36:42;;;;;;;71.97;9.65;;;;;;;30.27;16.81;98991.06;4908793;29;20524;-96
2024/04/01 11:43:09;;;;;;;54.75;8.77;;;;;;;30.35;16.63;98996.16;4886673;29;20120;-96
2024/04/01 11:57:32;;;;;;;70.47;9.52;;;;;;;30.61;15.82;98972.47;4596916;26;20050;-96
2024/04/01 12:29:42;;;;;;;69.05;10.57;;;;;;;30.86;15.53;98940.00;4813996;29;20073;-94
2024/04/01 12:33:09;;;;;;;69.85;9.63;;;;;;;30.97;15.70;98954.59;4785324;29;20034;-96
2024/04/01 12:36:15;;;;;;;70.68;9.00;;;;;;;31.11;15.53;98948.84;4813815;29;20610;-95
2024/04/01 12:42:07;;;;;;;75.97;9.65;;;;;;;30.69;15.64;98939.03;4851863;29;20030;-94
2024/04/01 12:44:44;;;;;;;71.75;9.40;;;;;;;30.84;15.43;98943.22;4840081;29;20041;-92
2024/04/01 12:47:25;;;;;;;71.38;9.73;;;;;;;30.91;16.19;98926.47;4894491;29;20032;-91
2024/04/01 12:50:12;;;;;;;68.20;8.07;;;;;;;30.91;15.70;98909.78;4879789;29;20067;-92
2024/04/01 12:53:43;;;;;;;;;;;;;;;;;;;;;
2024/04/01 12:56:22;;;;;;;63.50;10.00;;;;;;;30.82;15.44;98926.97;4894085;29;20059;-92
2024/04/01 12:59:09;;;;;;;63.63;8.13;;;;;;;30.90;15.22;98935.22;4894000;29;20044;-95
2024/04/01 13:05:50;;;;;;;64.53;9.27;;;;;;;30.99;15.04;98935.50;4925354;29;20569;-96
2024/04/01 13:09:05;;;;;;;;;;;;;;;;;;;;;
2024/04/01 13:12:09;;;;;;;63.60;9.40;;;;;;;30.88;15.29;98929.28;4930395;29;20100;-94
2024/04/01 13:29:14;;;;;;;;;;;;;;;;;;;;;
2024/04/01 13:32:36;;;;;;;;;;;;;;;;;;;;;
2024/04/01 13:35:49;;;;;;;63.83;8.02;;;;;;;30.60;15.20;98870.06;4879004;29;20095;-95
2024/04/01 13:38:31;;;;;;;;;;;;;;;;;;;;;
2024/04/01 13:41:05;;;;;;;69.63;8.77;;;;;;;30.71;15.05;98878.25;4942025;29;20209;-96
2024/04/01 13:43:50;;;;;;;57.85;8.02;;;;;;;30.58;15.64;98861.34;4922341;29;20024;-96
2024/04/01 13:47:32;;;;;;;;;;;;;;;;;;;;;
2024/04/01 13:53:37;;;;;;;64.45;9.88;;;;;;;30.70;16.54;98896.16;4910829;29;20056;-95
2024/04/01 13:56:26;;;;;;;59.13;9.88;;;;;;;30.64;16.03;98895.03;4903945;29;20028;-96
2024/04/01 13:59:44;;;;;;;;;;;;;;;;;;;;;
2024/04/01 14:02:31;;;;;;;65.07;7.90;;;;;;;30.65;16.25;98882.69;4925947;29;20083;-94
2024/04/01 14:05:18;;;;;;;71.63;8.40;;;;;;;30.54;16.65;98875.28;4957025;29;20422;-93
2024/04/01 14:08:33;;;;;;;59.33;7.82;;;;;;;30.59;16.12;98880.41;4954417;29;20119;-96
2024/04/01 14:18:15;;;;;;;67.22;10.50;;;;;;;30.29;17.12;98858.09;4866401;29;20078;-94
2024/04/01 14:21:52;;;;;;;64.55;9.05;;;;;;;30.37;17.21;98860.41;4912690;29;20032;-95
2024/04/01 14:24:04;;;;;;;57.22;9.77;;;;;;;30.22;17.78;98843.09;4931622;28;20054;-96
2024/04/01 14:26:39;;;;;;;61.97;7.68;;;;;;;30.31;18.18;98842.63;4915380;29;20032;-96
2024/04/01 14:29:07;;;;;;;50.40;7.43;;;;;;;30.38;17.75;98859.22;4906714;29;20024;-96
2024/04/01 14:31:44;;;;;;;50.20;9.00;;;;;;;30.28;18.30;98837.06;4909400;28;20035;-96
2024/04/01 14:34:12;;;;;;;74.07;9.82;;;;;;;30.27;17.66;98827.97;4930740;29;20565;-96
2024/04/01 14:36:52;;;;;;;64.57;9.80;;;;;;;30.34;17.93;98852.94;4896374;29;20051;-95
2024/04/01 14:39:47;;;;;;;63.10;7.43;;;;;;;30.18;18.44;98834.03;4911925;29;20032;-96
2024/04/01 14:42:34;;;;;;;60.60;9.10;;;;;;;30.21;19.02;98855.41;4887232;29;20059;-95
2024/04/01 14:45:00;;;;;;;66.78;9.48;;;;;;;29.98;18.88;98827.50;4928921;29;20019;-95
2024/04/01 14:47:25;;;;;;;74.82;9.27;;;;;;;29.99;18.68;98840.19;4895758;29;20146;-95
2024/04/01 14:49:59;;;;;;;70.38;8.55;;;;;;;29.80;18.69;98817.38;4895955;29;20027;-96
2024/04/01 14:52:25;;;;;;;61.03;9.25;;;;;;;29.71;19.16;98819.06;4896308;29;20210;-95
2024/04/01 14:54:56;;;;;;;63.78;10.40;;;;;;;29.66;19.68;98825.03;4916317;29;20085;-95
2024/04/01 14:57:37;;;;;;;;;;;;;;;;;;;;;
2024/04/01 15:00:06;;;;;;;47.05;7.57;;;;;;;29.59;19.43;98809.22;4918185;29;20119;-92
2024/04/01 15:02:38;;;;;;;51.45;8.50;;;;;;;29.49;19.56;98813.69;4899674;29;20429;-94
2024/04/01 15:07:55;;;;;;;58.17;7.90;;;;;;;29.61;19.27;98815.97;5384010;23;20145;-95
2024/04/01 15:14:17;;;;;;;55.10;8.48;;;;;;;29.61;19.13;98798.50;5578214;23;20140;-96
2024/04/01 15:16:53;;;;;;;60.88;8.25;;;;;;;29.47;19.57;98806.97;4933941;29;20127;-96
2024/04/01 15:19:20;;;;;;;60.10;7.60;;;;;;;29.45;20.06;98809.34;4919149;29;20039;-93
2024/04/01 15:21:49;;;;;;;48.22;8.15;;;;;;;29.24;20.49;98811.13;4890797;29;20040;-92
2024/04/01 15:24:15;;;;;;;69.22;9.23;;;;;;;29.27;20.76;98826.94;4917321;29;20028;-94
2024/04/01 15:26:41;;;;;;;53.15;8.35;;;;;;;29.09;20.92;98795.75;4913190;29;20027;-94
2024/04/01 15:29:17;;;;;;;49.97;8.52;;;;;;;29.00;21.13;98785.13;4912378;29;20032;-93
2024/04/01 15:31:43;;;;;;;52.55;8.73;;;;;;;28.88;21.23;98782.84;4926543;29;20086;-92
2024/04/01 15:34:08;;;;;;;54.50;8.15;;;;;;;28.84;21.48;98793.94;4919720;29;20036;-93
2024/04/01 15:36:34;;;;;;;43.40;7.25;;;;;;;28.70;22.18;98792.09;4926042;29;20094;-92
2024/04/01 15:39:06;;;;;;;44.97;7.82;;;;;;;28.69;22.83;98812.66;4899492;29;20031;-93
2024/04/01 15:41:54;;;;;;;55.15;7.55;;;;;;;28.34;23.49;98781.16;5220614;23;20883;-94
2024/04/01 15:52:31;;;;;;;48.40;8.20;;;;;;;27.77;24.28;98789.63;4948906;28;20324;-94
2024/04/01 15:54:57;;;;;;;41.53;7.85;;;;;;;27.55;25.17;98772.28;4924951;29;20477;-93
2024/04/01 15:57:30;;;;;;;43.80;8.68;;;;;;;27.45;23.08;98789.69;4913056;28;20402;-93
2024/04/01 15:59:56;;;;;;;44.70;8.68;;;;;;;27.36;23.63;98793.63;4917512;29;20042;-95
2024/04/01 16:02:22;;;;;;;42.92;6.78;;;;;;;27.15;23.98;98777.03;4938951;29;20034;-92
2024/04/01 16:04:48;;;;;;;39.45;6.05;;;;;;;27.04;23.11;98784.50;4909667;29;20061;-93
2024/04/01 16:07:17;;;;;;;32.47;5.82;;;;;;;27.09;23.44;98795.97;4927332;29;20685;-92
2024/04/01 16:09:49;;;;;;;37.20;5.45;;;;;;;26.78;23.68;98772.66;4927288;29;20036;-95
2024/04/01 16:12:14;;;;;;;36.58;5.65;;;;;;;26.59;23.97;98762.75;4926838;29;20027;-92
2024/04/01 16:14:40;;;;;;;39.03;6.43;;;;;;;26.54;23.71;98763.91;4926173;29;20466;-92